Time;durP1;ratioP1;P1;durP2;ratioP2;P2;SDS_P1;SDS_P2;PMS_P1;PMS_P2;Temp;Humidity;BMP_temperature;BMP_pressure;BME280_temperature;BME280_humidity;BME280_pressure;Samples;Min_cycle;Max_cycle;Signal;HPM_P1;HPM_P2
2021/06/23 00:02:22;;;;;;;;;;;15.40;98.00;;;;;;4999643;28;20356;-89
2021/06/23 00:04:48;;;;;;;;;;;15.40;98.00;;;;;;4999324;28;21357;-88
2021/06/23 00:07:13;;;;;;;;;;;15.40;98.00;;;;;;4999384;28;19914;-88
2021/06/23 00:09:39;;;;;;;;;;;15.30;98.00;;;;;;4999590;28;20025;-89
2021/06/23 00:12:16;;;;;;;;;;;15.30;98.00;;;;;;5002144;28;19921;-88
2021/06/23 00:14:42;;;;;;;;;;;15.20;98.00;;;;;;4999238;28;19914;-88
2021/06/23 00:17:08;;;;;;;;;;;15.20;98.00;;;;;;5002637;28;19921;-88
2021/06/23 00:19:36;;;;;;;;;;;15.10;98.00;;;;;;5000849;28;19921;-88
2021/06/23 00:22:02;;;;;;;;;;;15.10;98.00;;;;;;5008619;28;19928;-87
2021/06/23 00:24:27;;;;;;;;;;;15.00;98.00;;;;;;5001713;28;19918;-88
2021/06/23 00:26:53;;;;;;;;;;;15.00;98.00;;;;;;5010281;28;19946;-88
2021/06/23 00:29:18;;;;;;;;;;;15.00;98.00;;;;;;5009378;28;20010;-87
2021/06/23 00:31:44;;;;;;;;;;;14.90;98.00;;;;;;5004139;28;20319;-87
2021/06/23 00:34:11;;;;;;;;;;;14.90;98.00;;;;;;5006852;28;20056;-89
2021/06/23 00:36:36;;;;;;;;;;;14.80;98.00;;;;;;5001193;28;19921;-86
2021/06/23 00:39:02;;;;;;;;;;;14.70;98.00;;;;;;5002973;28;19921;-87
2021/06/23 00:41:27;;;;;;;;;;;14.60;98.00;;;;;;5001663;28;19914;-86
2021/06/23 00:43:55;;;;;;;;;;;14.60;98.00;;;;;;5002787;28;19921;-86
2021/06/23 00:46:21;;;;;;;;;;;14.60;98.00;;;;;;5002628;28;19913;-88
2021/06/23 00:48:53;;;;;;;;;;;14.60;98.00;;;;;;5006705;28;19925;-87
2021/06/23 00:51:18;;;;;;;;;;;14.60;98.00;;;;;;5002707;28;20319;-86
2021/06/23 00:53:44;;;;;;;;;;;14.50;97.90;;;;;;5003206;28;19914;-86
2021/06/23 00:56:12;;;;;;;;;;;14.60;97.50;;;;;;5001496;28;19940;-88
2021/06/23 00:58:38;;;;;;;;;;;14.60;97.30;;;;;;5003782;28;20319;-85
2021/06/23 01:01:04;;;;;;;;;;;14.70;97.70;;;;;;5005682;28;19920;-86
2021/06/23 01:03:30;;;;;;;;;;;14.60;97.80;;;;;;5003267;28;19921;-88
2021/06/23 01:05:55;;;;;;;;;;;14.60;97.50;;;;;;5001329;28;19953;-87
2021/06/23 01:08:21;;;;;;;;;;;14.60;97.60;;;;;;5001423;28;20295;-87
2021/06/23 01:10:46;;;;;;;;;;;14.60;97.40;;;;;;5003768;28;19929;-87
2021/06/23 01:13:21;;;;;;;;;;;14.60;97.30;;;;;;5002223;28;20004;-86
2021/06/23 01:15:48;;;;;;;;;;;14.60;97.40;;;;;;5004598;28;19925;-87
2021/06/23 01:18:14;;;;;;;;;;;14.50;97.40;;;;;;5006376;28;19926;-86
2021/06/23 01:20:41;;;;;;;;;;;14.50;97.10;;;;;;5000171;28;19937;-86
2021/06/23 01:23:07;;;;;;;;;;;14.40;97.20;;;;;;5006789;28;19928;-85
2021/06/23 01:25:32;;;;;;;;;;;14.40;97.30;;;;;;5002447;28;20217;-87
2021/06/23 01:27:58;;;;;;;;;;;14.50;97.10;;;;;;5005277;28;19975;-87
2021/06/23 01:30:23;;;;;;;;;;;14.50;97.00;;;;;;5005699;28;20262;-86
2021/06/23 01:32:49;;;;;;;;;;;14.50;96.90;;;;;;5018607;28;19913;-86
2021/06/23 01:35:15;;;;;;;;;;;14.40;97.40;;;;;;5018164;28;20012;-87
2021/06/23 01:37:41;;;;;;;;;;;14.40;97.30;;;;;;5016811;28;19944;-86
2021/06/23 01:40:07;;;;;;;;;;;14.30;97.20;;;;;;5018225;28;21332;-86
2021/06/23 01:42:33;;;;;;;;;;;14.30;97.10;;;;;;5000151;28;19922;-87
2021/06/23 01:45:00;;;;;;;;;;;14.30;97.00;;;;;;5003872;28;19960;-87
2021/06/23 01:47:26;;;;;;;;;;;14.30;97.40;;;;;;4999066;28;19925;-86
2021/06/23 01:49:51;;;;;;;;;;;14.30;97.10;;;;;;4996970;28;20097;-87
2021/06/23 01:52:17;;;;;;;;;;;14.30;97.20;;;;;;5008011;28;19914;-86
2021/06/23 01:54:43;;;;;;;;;;;14.30;97.20;;;;;;5000087;28;19914;-87
2021/06/23 01:57:09;;;;;;;;;;;14.30;97.10;;;;;;5001392;28;19918;-87
2021/06/23 01:59:35;;;;;;;;;;;14.30;97.40;;;;;;5003728;28;19976;-87
2021/06/23 02:02:06;;;;;;;;;;;14.20;97.50;;;;;;5007269;28;19956;-87
2021/06/23 02:04:50;;;;;;;;;;;14.20;97.20;;;;;;5000564;28;19914;-87
2021/06/23 02:07:23;;;;;;;;;;;14.20;97.10;;;;;;5005409;28;19928;-87
2021/06/23 02:09:57;;;;;;;;;;;14.20;97.00;;;;;;4997716;28;19914;-87
2021/06/23 02:12:25;;;;;;;;;;;14.10;97.00;;;;;;5006296;28;19917;-87
2021/06/23 02:14:54;;;;;;;;;;;14.10;97.20;;;;;;5005989;28;19917;-87
2021/06/23 02:17:21;;;;;;;;;;;14.00;97.60;;;;;;5004426;28;19948;-87
2021/06/23 02:19:49;;;;;;;;;;;13.90;97.80;;;;;;5001617;28;19924;-88
2021/06/23 02:22:16;;;;;;;;;;;13.90;97.90;;;;;;5001547;28;19941;-88
2021/06/23 02:24:42;;;;;;;;;;;13.90;98.00;;;;;;5003142;28;19949;-88
2021/06/23 02:27:08;;;;;;;;;;;14.00;98.00;;;;;;5004472;28;19964;-88
2021/06/23 02:29:34;;;;;;;;;;;14.00;98.00;;;;;;5004872;28;20333;-88
2021/06/23 02:32:00;;;;;;;;;;;14.00;98.00;;;;;;5005447;28;20385;-88
2021/06/23 02:34:26;;;;;;;;;;;14.00;98.00;;;;;;5001960;28;19960;-88
2021/06/23 02:36:51;;;;;;;;;;;14.00;98.00;;;;;;4998744;28;19914;-88
2021/06/23 02:39:17;;;;;;;;;;;13.90;98.00;;;;;;5000487;28;20335;-88
2021/06/23 02:41:43;;;;;;;;;;;13.90;98.00;;;;;;5004473;28;19913;-88
2021/06/23 02:44:09;;;;;;;;;;;13.90;98.00;;;;;;4997339;28;20222;-88
2021/06/23 02:46:34;;;;;;;;;;;14.00;98.00;;;;;;5003383;28;19972;-87
2021/06/23 02:49:01;;;;;;;;;;;13.90;98.00;;;;;;4998902;28;19929;-87
2021/06/23 02:51:27;;;;;;;;;;;13.90;98.00;;;;;;5005177;28;20016;-88
2021/06/23 02:53:53;;;;;;;;;;;13.90;98.00;;;;;;5002625;28;20052;-88
2021/06/23 02:56:19;;;;;;;;;;;14.00;98.00;;;;;;5004294;28;20187;-88
2021/06/23 02:58:45;;;;;;;;;;;13.90;98.00;;;;;;4999806;28;19936;-89
2021/06/23 03:01:11;;;;;;;;;;;14.00;98.00;;;;;;4998777;28;20247;-88
2021/06/23 03:03:38;;;;;;;;;;;13.90;98.00;;;;;;5004848;28;19922;-88
2021/06/23 03:06:04;;;;;;;;;;;13.90;98.00;;;;;;5000767;28;20318;-89
2021/06/23 03:08:30;;;;;;;;;;;13.80;98.00;;;;;;4997391;28;19922;-88
2021/06/23 03:10:56;;;;;;;;;;;13.90;98.00;;;;;;5000606;28;19932;-88
2021/06/23 03:13:21;;;;;;;;;;;13.80;98.00;;;;;;4999554;28;19928;-89
2021/06/23 03:15:50;;;;;;;;;;;13.80;98.00;;;;;;4997144;28;19922;-88
2021/06/23 03:18:15;;;;;;;;;;;13.70;98.00;;;;;;5003931;28;20020;-89
2021/06/23 03:20:41;;;;;;;;;;;13.70;98.00;;;;;;5001930;28;20056;-88
2021/06/23 03:23:07;;;;;;;;;;;13.70;98.00;;;;;;5000979;28;19913;-88
2021/06/23 03:25:33;;;;;;;;;;;13.80;98.00;;;;;;5004405;28;19917;-88
2021/06/23 03:27:59;;;;;;;;;;;13.80;98.00;;;;;;4999986;28;19925;-89
2021/06/23 03:30:26;;;;;;;;;;;13.90;98.00;;;;;;4998208;28;20008;-88
2021/06/23 03:32:55;;;;;;;;;;;13.90;98.00;;;;;;4999565;28;20287;-89
2021/06/23 03:35:21;;;;;;;;;;;14.00;98.00;;;;;;4997408;28;19914;-89
2021/06/23 03:38:07;;;;;;;;;;;14.10;98.00;;;;;;4999486;28;19918;-88
2021/06/23 03:40:33;;;;;;;;;;;14.10;98.00;;;;;;4998559;28;19922;-89
2021/06/23 03:43:00;;;;;;;;;;;14.10;98.00;;;;;;5003730;28;19921;-88
2021/06/23 03:45:25;;;;;;;;;;;14.20;98.00;;;;;;4998250;28;19920;-88
2021/06/23 03:47:51;;;;;;;;;;;14.20;98.00;;;;;;4999414;28;19922;-88
2021/06/23 03:50:17;;;;;;;;;;;14.20;98.00;;;;;;4997474;28;19972;-88
2021/06/23 03:52:43;;;;;;;;;;;14.20;98.00;;;;;;5002290;28;19926;-88
2021/06/23 03:55:19;;;;;;;;;;;14.30;98.00;;;;;;5003952;28;20033;-87
2021/06/23 03:57:58;;;;;;;;;;;14.30;98.00;;;;;;5002799;28;20004;-89
2021/06/23 04:00:25;;;;;;;;;;;14.40;98.00;;;;;;5014309;28;19917;-90
2021/06/23 04:02:51;;;;;;;;;;;14.50;98.00;;;;;;5001977;28;19981;-90
2021/06/23 04:05:17;;;;;;;;;;;14.50;98.00;;;;;;4997140;28;20271;-90
2021/06/23 04:07:42;;;;;;;;;;;14.60;98.00;;;;;;5002914;28;19914;-90
2021/06/23 04:10:09;;;;;;;;;;;14.60;98.00;;;;;;5000722;28;20208;-90
2021/06/23 04:12:34;;;;;;;;;;;14.70;98.00;;;;;;5003668;28;19913;-89
2021/06/23 04:15:00;;;;;;;;;;;14.80;98.00;;;;;;5001498;28;19920;-89
2021/06/23 04:17:28;;;;;;;;;;;14.90;98.00;;;;;;5003427;28;19914;-89
2021/06/23 04:19:53;;;;;;;;;;;14.90;98.00;;;;;;4998856;28;20036;-89
2021/06/23 04:22:19;;;;;;;;;;;15.10;98.00;;;;;;5005854;28;20016;-89
2021/06/23 04:24:45;;;;;;;;;;;15.10;98.00;;;;;;4996483;28;20299;-89
2021/06/23 04:27:10;;;;;;;;;;;15.10;98.00;;;;;;5001377;28;19953;-89
2021/06/23 04:29:39;;;;;;;;;;;15.10;98.00;;;;;;4998432;28;19924;-89
2021/06/23 04:32:05;;;;;;;;;;;15.10;98.00;;;;;;4998072;28;19941;-89
2021/06/23 04:34:30;;;;;;;;;;;15.10;98.00;;;;;;4997568;28;19914;-89
2021/06/23 04:36:56;;;;;;;;;;;15.10;98.00;;;;;;5002114;28;20223;-90
2021/06/23 04:39:21;;;;;;;;;;;15.20;98.00;;;;;;5000616;28;19925;-88
2021/06/23 04:41:47;;;;;;;;;;;15.20;98.00;;;;;;5000307;28;19952;-89
2021/06/23 04:44:13;;;;;;;;;;;15.30;98.00;;;;;;4996701;28;19921;-89
2021/06/23 04:46:38;;;;;;;;;;;15.30;98.00;;;;;;5002162;28;19952;-88
2021/06/23 04:49:04;;;;;;;;;;;15.50;98.00;;;;;;4998591;28;21167;-88
2021/06/23 04:51:29;;;;;;;;;;;15.50;98.00;;;;;;4999792;28;19920;-87
2021/06/23 04:53:55;;;;;;;;;;;15.60;98.00;;;;;;4999977;28;19918;-90
2021/06/23 04:56:21;;;;;;;;;;;15.70;97.80;;;;;;4999506;28;19914;-90
2021/06/23 04:58:47;;;;;;;;;;;15.70;97.80;;;;;;4997885;28;19961;-89
2021/06/23 05:01:12;;;;;;;;;;;15.70;97.80;;;;;;4999731;28;19941;-89
2021/06/23 05:03:38;;;;;;;;;;;15.80;98.00;;;;;;5002478;28;19913;-90
2021/06/23 05:06:04;;;;;;;;;;;15.90;97.40;;;;;;5001041;28;20322;-89
2021/06/23 05:08:30;;;;;;;;;;;16.10;97.00;;;;;;5003268;28;19933;-90
2021/06/23 05:10:56;;;;;;;;;;;16.10;97.00;;;;;;5005096;28;19913;-89
2021/06/23 05:13:22;;;;;;;;;;;16.20;97.30;;;;;;5002534;28;19917;-90
2021/06/23 05:15:48;;;;;;;;;;;16.30;97.30;;;;;;5005193;28;20052;-90
2021/06/23 05:18:14;;;;;;;;;;;16.50;97.60;;;;;;5007277;28;19937;-89
2021/06/23 05:20:40;;;;;;;;;;;16.70;97.30;;;;;;5005447;28;19921;-90
2021/06/23 05:23:05;;;;;;;;;;;17.00;97.30;;;;;;5008945;28;19913;-89
2021/06/23 05:25:31;;;;;;;;;;;17.20;96.70;;;;;;5006106;28;20011;-89
2021/06/23 05:27:56;;;;;;;;;;;17.30;96.60;;;;;;4999889;28;20330;-89
2021/06/23 05:30:22;;;;;;;;;;;17.60;96.60;;;;;;5002174;28;19932;-89
2021/06/23 05:32:48;;;;;;;;;;;17.80;96.30;;;;;;5001855;28;19914;-89
2021/06/23 05:35:13;;;;;;;;;;;18.00;96.10;;;;;;4998997;28;19968;-89
2021/06/23 05:37:39;;;;;;;;;;;18.10;95.60;;;;;;5009590;28;19913;-89
2021/06/23 05:40:05;;;;;;;;;;;18.20;95.30;;;;;;5007853;28;19952;-87
2021/06/23 05:42:31;;;;;;;;;;;18.40;94.80;;;;;;5008617;28;19917;-90
2021/06/23 05:44:57;;;;;;;;;;;18.40;94.40;;;;;;5009172;28;19991;-90
2021/06/23 05:47:22;;;;;;;;;;;18.40;94.40;;;;;;5026046;28;19980;-90
2021/06/23 05:49:51;;;;;;;;;;;18.30;94.50;;;;;;5067252;22;19925;-92
2021/06/23 05:52:17;;;;;;;;;;;18.00;94.60;;;;;;5060521;28;19915;-91
2021/06/23 05:54:42;;;;;;;;;;;17.90;95.10;;;;;;5060481;28;20258;-90
2021/06/23 05:57:08;;;;;;;;;;;17.80;95.50;;;;;;5093053;28;19916;-90
2021/06/23 05:59:34;;;;;;;;;;;17.60;95.80;;;;;;5086159;28;19963;-90
2021/06/23 06:01:59;;;;;;;;;;;17.60;95.90;;;;;;5076916;28;20072;-90
2021/06/23 06:04:25;;;;;;;;;;;17.60;95.90;;;;;;5070008;28;20000;-90
2021/06/23 06:06:50;;;;;;;;;;;17.70;95.90;;;;;;5070365;28;20261;-90
2021/06/23 06:09:16;;;;;;;;;;;17.80;95.70;;;;;;5071730;28;19913;-90
2021/06/23 06:11:41;;;;;;;;;;;18.00;95.70;;;;;;5059763;28;19995;-90
2021/06/23 06:14:07;;;;;;;;;;;18.10;95.70;;;;;;5061588;28;20213;-90
2021/06/23 06:16:33;;;;;;;;;;;18.00;95.00;;;;;;5097300;28;19916;-89
2021/06/23 06:18:59;;;;;;;;;;;17.90;95.20;;;;;;5096766;28;19916;-89
2021/06/23 06:21:27;;;;;;;;;;;17.80;95.20;;;;;;5078391;28;19931;-88
2021/06/23 06:23:56;;;;;;;;;;;17.70;95.80;;;;;;5075179;28;19920;-89
2021/06/23 06:26:24;;;;;;;;;;;17.60;95.90;;;;;;5092870;28;19958;-89
2021/06/23 06:28:50;;;;;;;;;;;17.60;96.10;;;;;;5077484;28;20315;-89
2021/06/23 06:31:15;;;;;;;;;;;17.70;96.30;;;;;;5076114;28;19913;-88
2021/06/23 06:33:49;;;;;;;;;;;17.80;96.30;;;;;;5077349;28;19912;-89
2021/06/23 06:36:31;;;;;;;;;;;;;;;;;;;;;
2021/06/23 06:39:00;;;;;;;;;;;17.80;95.90;;;;;;5065514;28;19916;-90
2021/06/23 06:41:31;;;;;;;;;;;17.90;95.90;;;;;;5060336;28;19916;-90
2021/06/23 06:44:00;;;;;;;;;;;18.00;96.10;;;;;;5076269;28;20193;-90
2021/06/23 06:46:28;;;;;;;;;;;18.00;95.80;;;;;;5059528;28;19970;-90
2021/06/23 06:48:59;;;;;;;;;;;18.00;95.80;;;;;;5059069;28;19913;-89
2021/06/23 06:51:25;;;;;;;;;;;18.00;95.90;;;;;;5058273;28;19920;-90
2021/06/23 06:54:11;;;;;;;;;;;18.20;96.10;;;;;;5070490;28;19924;-91
2021/06/23 06:56:36;;;;;;;;;;;18.30;95.90;;;;;;5076457;28;19909;-89
2021/06/23 06:59:02;;;;;;;;;;;18.40;95.60;;;;;;5076584;28;19916;-90
2021/06/23 07:01:27;;;;;;;;;;;18.70;95.60;;;;;;5067286;28;19921;-90
2021/06/23 07:03:55;;;;;;;;;;;19.30;95.60;;;;;;5073677;28;19934;-90
2021/06/23 07:06:30;;;;;;;;;;;19.40;95.00;;;;;;5075194;28;19912;-89
2021/06/23 07:09:23;;;;;;;;;;;19.40;94.30;;;;;;5059777;28;19912;-89
2021/06/23 07:11:49;;;;;;;;;;;19.50;94.40;;;;;;5090573;28;19908;-90
2021/06/23 07:14:18;;;;;;;;;;;19.50;94.10;;;;;;5078248;28;20328;-88
2021/06/23 07:16:53;;;;;;;;;;;19.90;94.00;;;;;;5078760;28;19908;-88
2021/06/23 07:20:00;;;;;;;;;;;20.40;93.40;;;;;;5096727;28;19912;-90
2021/06/23 07:22:40;;;;;;;;;;;20.70;92.70;;;;;;4997316;28;20441;-90
2021/06/23 07:25:53;;;;;;;;;;;21.30;90.90;;;;;;5020353;28;19908;-89
2021/06/23 07:31:50;;;;;;;;;;;23.20;86.00;;;;;;4988984;28;19927;-89
2021/06/23 07:37:03;;;;;;;;;;;26.20;77.30;;;;;;5056018;28;19909;-90
2021/06/23 07:39:29;;;;;;;;;;;26.30;75.80;;;;;;5056256;28;19913;-88
2021/06/23 07:41:58;;;;;;;;;;;26.70;75.30;;;;;;5089414;28;19908;-89
2021/06/23 07:44:33;;;;;;;;;;;27.40;72.50;;;;;;5091548;28;20215;-89
2021/06/23 07:47:02;;;;;;;;;;;27.40;71.70;;;;;;5075183;28;19908;-89
2021/06/23 07:49:38;;;;;;;;;;;27.10;72.60;;;;;;5076057;28;19917;-89
2021/06/23 07:52:16;;;;;;;;;;;26.90;74.00;;;;;;5063961;28;19923;-90
2021/06/23 08:17:55;;;;;;;;;;;24.10;79.70;;;;;;5030119;28;19912;-89
2021/06/23 08:20:41;;;;;;;;;;;22.60;83.60;;;;;;5055579;28;20323;-88
2021/06/23 08:23:31;;;;;;;;;;;22.60;86.50;;;;;;5078935;28;20259;-89
2021/06/23 08:26:03;;;;;;;;;;;23.80;83.20;;;;;;5055240;28;20301;-89
2021/06/23 08:28:44;;;;;;;;;;;;;;;;;;;;;
2021/06/23 08:31:12;;;;;;;;;;;25.80;76.30;;;;;;5083784;28;19916;-89
2021/06/23 08:33:53;;;;;;;;;;;25.00;77.60;;;;;;5058108;28;19919;-89
2021/06/23 08:36:58;;;;;;;;;;;;;;;;;;;;;
2021/06/23 08:39:24;;;;;;;;;;;25.60;76.10;;;;;;5088308;28;19924;-89
2021/06/23 08:44:41;;;;;;;;;;;27.80;73.00;;;;;;5030586;28;20086;-92
2021/06/23 08:47:10;;;;;;;;;;;28.80;68.70;;;;;;5074695;28;19963;-91
2021/06/23 08:49:39;;;;;;;;;;;28.90;67.80;;;;;;5086524;28;19916;-91
2021/06/23 08:52:05;;;;;;;;;;;29.50;67.90;;;;;;5062059;28;19912;-89
2021/06/23 08:54:30;;;;;;;;;;;29.50;66.20;;;;;;5058245;28;19913;-89
2021/06/23 08:56:56;;;;;;;;;;;28.00;69.00;;;;;;5070576;28;19913;-90
2021/06/23 08:59:21;;;;;;;;;;;27.40;70.40;;;;;;5083214;28;19912;-89
2021/06/23 09:01:49;;;;;;;;;;;26.20;73.30;;;;;;5080629;28;19913;-90
2021/06/23 09:04:18;;;;;;;;;;;26.70;73.20;;;;;;5075115;28;19927;-89
2021/06/23 09:06:53;;;;;;;;;;;27.00;72.00;;;;;;5079206;28;19917;-89
2021/06/23 09:09:23;;;;;;;;;;;27.30;69.00;;;;;;5077090;28;19913;-88
2021/06/23 09:11:50;;;;;;;;;;;26.40;70.80;;;;;;5087344;28;19912;-89
2021/06/23 09:14:16;;;;;;;;;;;25.00;73.80;;;;;;5075106;28;20289;-88
2021/06/23 09:17:01;;;;;;;;;;;24.50;75.90;;;;;;5076842;28;19912;-89
2021/06/23 09:19:31;;;;;;;;;;;25.30;74.50;;;;;;5077947;28;19916;-88
2021/06/23 09:21:56;;;;;;;;;;;27.30;67.60;;;;;;5066295;28;19919;-88
2021/06/23 09:24:33;;;;;;;;;;;27.40;68.20;;;;;;5076626;28;19913;-88
2021/06/23 09:26:59;;;;;;;;;;;26.90;69.70;;;;;;5074596;28;19913;-87
2021/06/23 09:29:25;;;;;;;;;;;26.20;71.20;;;;;;5077882;28;19919;-88
2021/06/23 09:31:51;;;;;;;;;;;26.00;71.10;;;;;;5076128;28;20224;-87
2021/06/23 09:34:35;;;;;;;;;;;25.40;73.10;;;;;;5077857;28;19912;-88
2021/06/23 09:37:20;;;;;;;;;;;24.60;76.70;;;;;;5077379;28;20003;-88
2021/06/23 09:39:45;;;;;;;;;;;25.30;75.40;;;;;;5073212;28;20304;-87
2021/06/23 09:42:11;;;;;;;;;;;26.50;70.30;;;;;;5086030;28;19965;-87
2021/06/23 09:44:37;;;;;;;;;;;26.00;73.50;;;;;;5078495;28;19919;-87
2021/06/23 09:47:05;;;;;;;;;;;26.10;71.90;;;;;;5075674;28;20323;-87
2021/06/23 09:49:30;;;;;;;;;;;26.00;70.00;;;;;;5074990;28;19942;-87
2021/06/23 09:51:56;;;;;;;;;;;25.80;68.50;;;;;;5075641;28;19912;-87
2021/06/23 09:54:30;;;;;;;;;;;25.60;69.30;;;;;;5083761;28;20228;-89
2021/06/23 09:57:17;;;;;;;;;;;26.50;73.00;;;;;;5061851;28;19917;-87
2021/06/23 09:59:46;;;;;;;;;;;28.10;67.80;;;;;;5082677;28;19916;-87
2021/06/23 10:02:21;;;;;;;;;;;28.10;66.50;;;;;;5077201;28;19912;-88
2021/06/23 10:04:47;;;;;;;;;;;27.60;67.50;;;;;;5075857;28;19908;-88
2021/06/23 10:07:13;;;;;;;;;;;27.80;68.80;;;;;;5076354;28;20311;-87
2021/06/23 10:09:39;;;;;;;;;;;29.10;68.40;;;;;;5081869;28;20312;-88
2021/06/23 10:12:06;;;;;;;;;;;30.40;63.50;;;;;;5071466;28;19912;-88
2021/06/23 10:14:34;;;;;;;;;;;30.80;61.90;;;;;;5077244;28;19917;-88
2021/06/23 10:17:01;;;;;;;;;;;31.50;60.90;;;;;;5077764;28;20014;-87
2021/06/23 10:19:27;;;;;;;;;;;29.70;61.90;;;;;;5077510;28;19923;-88
2021/06/23 10:21:53;;;;;;;;;;;29.70;62.90;;;;;;5076294;28;19919;-86
2021/06/23 10:24:19;;;;;;;;;;;29.30;63.00;;;;;;5076813;28;19913;-87
2021/06/23 10:26:46;;;;;;;;;;;28.70;64.70;;;;;;5075972;28;19927;-87
2021/06/23 10:29:13;;;;;;;;;;;28.00;66.50;;;;;;5061001;28;19915;-87
2021/06/23 10:31:40;;;;;;;;;;;28.70;64.50;;;;;;5081310;28;20011;-88
2021/06/23 10:34:07;;;;;;;;;;;29.60;61.10;;;;;;5089265;28;19912;-87
2021/06/23 10:36:33;;;;;;;;;;;29.60;62.40;;;;;;5081530;28;19916;-87
2021/06/23 10:38:59;;;;;;;;;;;29.30;64.30;;;;;;5074581;28;19989;-87
2021/06/23 10:41:24;;;;;;;;;;;28.80;63.80;;;;;;5075691;28;19912;-86
2021/06/23 10:44:12;;;;;;;;;;;27.60;66.60;;;;;;5077197;28;20328;-86
2021/06/23 10:46:38;;;;;;;;;;;26.90;67.20;;;;;;5077237;28;19951;-87
2021/06/23 10:49:04;;;;;;;;;;;26.90;69.70;;;;;;5075242;28;19916;-86
2021/06/23 10:51:30;;;;;;;;;;;27.90;65.60;;;;;;5074753;28;19923;-86
2021/06/23 10:53:56;;;;;;;;;;;28.10;63.70;;;;;;5072847;28;19935;-87
2021/06/23 10:56:53;;;;;;;;;;;28.50;65.60;;;;;;5072774;28;19913;-87
2021/06/23 10:59:33;;;;;;;;;;;28.70;61.30;;;;;;5051930;28;19916;-86
2021/06/23 11:02:16;;;;;;;;;;;27.90;64.70;;;;;;5075520;28;20324;-87
2021/06/23 11:04:57;;;;;;;;;;;27.90;67.20;;;;;;5075656;28;19935;-87
2021/06/23 11:07:35;;;;;;;;;;;29.30;63.50;;;;;;5057716;28;20000;-87
2021/06/23 11:10:16;;;;;;;;;;;30.10;63.50;;;;;;5056922;28;20343;-87
2021/06/23 11:12:42;;;;;;;;;;;31.20;60.40;;;;;;5075087;28;20298;-86
2021/06/23 11:15:11;;;;;;;;;;;31.30;60.40;;;;;;5091345;28;19938;-86
2021/06/23 11:17:36;;;;;;;;;;;30.90;58.90;;;;;;5065217;28;19943;-85
2021/06/23 11:20:03;;;;;;;;;;;30.80;60.80;;;;;;5068660;28;19917;-86
2021/06/23 11:22:37;;;;;;;;;;;30.00;61.10;;;;;;5074939;28;19966;-86
2021/06/23 11:25:22;;;;;;;;;;;30.00;63.90;;;;;;5077882;28;20068;-85
2021/06/23 11:28:07;;;;;;;;;;;30.10;60.10;;;;;;5074926;28;19913;-84
2021/06/23 11:30:53;;;;;;;;;;;29.80;61.80;;;;;;5074225;28;19966;-84
2021/06/23 11:33:27;;;;;;;;;;;29.00;62.80;;;;;;5076276;28;20311;-84
2021/06/23 11:35:53;;;;;;;;;;;28.40;64.20;;;;;;5076709;28;20221;-84
2021/06/23 11:38:19;;;;;;;;;;;27.80;67.30;;;;;;5076385;28;19920;-85
2021/06/23 11:40:44;;;;;;;;;;;27.10;65.70;;;;;;5058523;28;19908;-86
2021/06/23 11:43:10;;;;;;;;;;;26.60;68.10;;;;;;5076334;28;19917;-85
2021/06/23 11:45:35;;;;;;;;;;;26.30;69.50;;;;;;5078193;28;19908;-85
2021/06/23 11:48:01;;;;;;;;;;;27.00;65.80;;;;;;5082447;28;19991;-85
2021/06/23 11:50:26;;;;;;;;;;;27.60;67.90;;;;;;5067617;28;19970;-86
2021/06/23 11:52:52;;;;;;;;;;;27.30;67.90;;;;;;5075817;28;19912;-85
2021/06/23 11:55:26;;;;;;;;;;;26.60;68.70;;;;;;5077041;28;19919;-85
2021/06/23 11:57:53;;;;;;;;;;;26.40;68.90;;;;;;5070299;28;19962;-85
2021/06/23 12:00:18;;;;;;;;;;;26.30;67.20;;;;;;5075932;28;19916;-85
2021/06/23 12:02:44;;;;;;;;;;;26.30;69.80;;;;;;5075863;28;19912;-86
2021/06/23 12:05:09;;;;;;;;;;;26.90;68.80;;;;;;5075921;28;19913;-86
2021/06/23 12:07:35;;;;;;;;;;;28.40;64.40;;;;;;5075295;28;20313;-86
2021/06/23 12:10:02;;;;;;;;;;;29.20;62.10;;;;;;5058032;28;20022;-85
2021/06/23 12:12:28;;;;;;;;;;;29.40;60.10;;;;;;5077571;28;20343;-86
2021/06/23 12:14:54;;;;;;;;;;;29.50;61.40;;;;;;5076322;28;19951;-85
2021/06/23 12:17:19;;;;;;;;;;;29.50;62.00;;;;;;5080597;28;19982;-84
2021/06/23 12:19:46;;;;;;;;;;;29.40;62.70;;;;;;5077848;28;20194;-86
2021/06/23 12:22:11;;;;;;;;;;;28.90;64.00;;;;;;5078526;28;19912;-84
2021/06/23 12:24:37;;;;;;;;;;;29.10;64.70;;;;;;5079467;28;20065;-84
2021/06/23 12:27:03;;;;;;;;;;;29.00;63.40;;;;;;5079395;28;19935;-84
2021/06/23 12:29:28;;;;;;;;;;;29.10;60.40;;;;;;5076945;28;19912;-85
2021/06/23 12:31:55;;;;;;;;;;;28.80;61.70;;;;;;5073591;28;20240;-85
2021/06/23 12:34:20;;;;;;;;;;;28.20;63.70;;;;;;5079181;28;20271;-85
2021/06/23 12:36:46;;;;;;;;;;;28.10;65.00;;;;;;5078235;28;20022;-85
2021/06/23 12:39:11;;;;;;;;;;;29.20;64.00;;;;;;5078884;28;20007;-85
2021/06/23 12:41:37;;;;;;;;;;;30.10;61.60;;;;;;5078363;28;19919;-85
2021/06/23 12:44:03;;;;;;;;;;;30.20;61.30;;;;;;5079332;28;20316;-85
2021/06/23 12:46:29;;;;;;;;;;;29.50;63.30;;;;;;5080678;28;19931;-85
2021/06/23 12:48:54;;;;;;;;;;;29.30;62.80;;;;;;5084861;28;19919;-85
2021/06/23 12:51:20;;;;;;;;;;;28.70;64.10;;;;;;5076121;28;19983;-85
2021/06/23 12:53:46;;;;;;;;;;;27.90;65.20;;;;;;5078884;28;20290;-84
2021/06/23 12:56:11;;;;;;;;;;;27.80;65.30;;;;;;5086500;28;20007;-85
2021/06/23 12:58:37;;;;;;;;;;;28.70;66.20;;;;;;5099473;28;19965;-85
2021/06/23 13:01:03;;;;;;;;;;;29.70;62.50;;;;;;5082394;28;19919;-84
2021/06/23 13:03:28;;;;;;;;;;;30.10;60.60;;;;;;5078539;28;19959;-85
2021/06/23 13:05:58;;;;;;;;;;;30.70;59.80;;;;;;5076465;28;19938;-85
2021/06/23 13:08:23;;;;;;;;;;;31.00;61.00;;;;;;5079227;28;19912;-85
2021/06/23 13:10:49;;;;;;;;;;;31.50;59.00;;;;;;5074686;28;20050;-86
2021/06/23 13:13:14;;;;;;;;;;;31.50;61.40;;;;;;5077244;28;19954;-85
2021/06/23 13:15:40;;;;;;;;;;;31.60;59.80;;;;;;5076044;28;19917;-85
2021/06/23 13:18:07;;;;;;;;;;;31.60;58.10;;;;;;5075889;28;19913;-85
2021/06/23 13:20:35;;;;;;;;;;;31.30;60.20;;;;;;5074107;28;19916;-85
2021/06/23 13:23:00;;;;;;;;;;;30.60;59.80;;;;;;5077477;28;19942;-84
2021/06/23 13:25:26;;;;;;;;;;;29.70;61.00;;;;;;5078239;28;20285;-84
2021/06/23 13:27:52;;;;;;;;;;;28.50;65.00;;;;;;5078054;28;19916;-84
2021/06/23 13:30:17;;;;;;;;;;;27.90;65.50;;;;;;5081999;28;19912;-84
2021/06/23 13:32:43;;;;;;;;;;;27.70;67.30;;;;;;5098955;28;19915;-84
2021/06/23 13:35:09;;;;;;;;;;;28.20;65.60;;;;;;5077953;28;20235;-84
2021/06/23 13:37:35;;;;;;;;;;;28.50;67.30;;;;;;5078838;28;20225;-84
2021/06/23 13:40:00;;;;;;;;;;;28.50;66.90;;;;;;5078094;28;19916;-84
2021/06/23 13:42:26;;;;;;;;;;;28.60;65.70;;;;;;5077860;28;19965;-84
2021/06/23 13:44:52;;;;;;;;;;;28.60;66.60;;;;;;5075870;28;19983;-84
2021/06/23 13:47:17;;;;;;;;;;;28.80;65.20;;;;;;5078544;28;19909;-85
2021/06/23 13:49:44;;;;;;;;;;;29.10;63.20;;;;;;5082860;28;19928;-85
2021/06/23 13:52:09;;;;;;;;;;;29.40;66.10;;;;;;5077022;28;19913;-84
2021/06/23 13:54:35;;;;;;;;;;;29.10;63.70;;;;;;5077681;28;20000;-85
2021/06/23 13:57:01;;;;;;;;;;;28.30;65.80;;;;;;5077641;28;19912;-85
2021/06/23 13:59:26;;;;;;;;;;;27.90;67.10;;;;;;5087163;28;19927;-84
2021/06/23 14:01:52;;;;;;;;;;;27.60;66.50;;;;;;5089883;28;20227;-86
2021/06/23 14:04:17;;;;;;;;;;;26.90;68.70;;;;;;5098254;28;20194;-86
2021/06/23 14:06:43;;;;;;;;;;;26.70;68.00;;;;;;5081825;28;20265;-85
2021/06/23 14:09:08;;;;;;;;;;;27.00;68.70;;;;;;5078074;28;20003;-85
2021/06/23 14:11:34;;;;;;;;;;;27.00;69.40;;;;;;5077078;28;19973;-84
2021/06/23 14:13:59;;;;;;;;;;;27.20;68.30;;;;;;5077964;28;20014;-84
2021/06/23 14:16:25;;;;;;;;;;;27.40;68.90;;;;;;5076432;28;20309;-84
2021/06/23 14:18:51;;;;;;;;;;;28.10;67.70;;;;;;5076204;28;19917;-85
2021/06/23 14:21:17;;;;;;;;;;;28.70;65.10;;;;;;5076557;28;19912;-84
2021/06/23 14:23:43;;;;;;;;;;;29.20;64.10;;;;;;5076518;28;20823;-83
2021/06/23 14:26:08;;;;;;;;;;;28.60;65.60;;;;;;5070718;28;19919;-82
2021/06/23 14:28:37;;;;;;;;;;;28.50;66.90;;;;;;5076658;28;20003;-83
2021/06/23 14:31:03;;;;;;;;;;;28.50;65.60;;;;;;5076892;28;19920;-83
2021/06/23 14:33:29;;;;;;;;;;;28.40;64.20;;;;;;5077339;28;19912;-84
2021/06/23 14:35:56;;;;;;;;;;;28.10;66.50;;;;;;5071125;28;19981;-85
2021/06/23 14:38:21;;;;;;;;;;;27.70;68.50;;;;;;5072032;28;19912;-84
2021/06/23 14:40:47;;;;;;;;;;;27.00;68.60;;;;;;5075469;28;19912;-84
2021/06/23 14:43:13;;;;;;;;;;;26.40;70.00;;;;;;5073108;28;20050;-84
2021/06/23 14:45:38;;;;;;;;;;;26.10;71.20;;;;;;5076602;28;19960;-84
2021/06/23 14:48:04;;;;;;;;;;;25.80;72.00;;;;;;5073982;28;19936;-84
2021/06/23 14:50:30;;;;;;;;;;;25.80;72.80;;;;;;5073982;28;19929;-85
2021/06/23 14:52:55;;;;;;;;;;;25.70;72.40;;;;;;5060177;28;19973;-84
2021/06/23 14:55:24;;;;;;;;;;;25.40;74.20;;;;;;5074437;28;19913;-84
2021/06/23 14:57:56;;;;;;;;;;;25.30;73.70;;;;;;5074978;28;20003;-83
2021/06/23 15:00:23;;;;;;;;;;;25.30;73.00;;;;;;5071779;28;19965;-83